Time;durP1;ratioP1;P1;durP2;ratioP2;P2;SDS_P1;SDS_P2;PMS_P1;PMS_P2;Temp;Humidity;BMP_temperature;BMP_pressure;BME280_temperature;BME280_humidity;BME280_pressure;Samples;Min_cycle;Max_cycle;Signal;HPM_P1;HPM_P2
2022/07/08 00:00:40;;;;;;;1.30;1.20;;;19.10;92.80;;;;;;5020529;28;20127;-71
2022/07/08 00:03:06;;;;;;;2.35;1.15;;;19.00;92.70;;;;;;5020391;28;20035;-75
2022/07/08 00:05:32;;;;;;;2.95;1.10;;;19.10;92.70;;;;;;5026769;28;20500;-73
2022/07/08 00:07:57;;;;;;;3.38;1.30;;;19.10;92.50;;;;;;5019774;28;20142;-73
2022/07/08 00:10:23;;;;;;;1.30;1.20;;;19.10;92.70;;;;;;5024948;28;20040;-72
2022/07/08 00:12:49;;;;;;;1.40;1.30;;;19.00;92.80;;;;;;5021878;28;20502;-74
2022/07/08 00:15:15;;;;;;;3.45;1.23;;;19.00;93.00;;;;;;5029959;28;20032;-72
2022/07/08 00:17:41;;;;;;;0.98;0.98;;;18.90;93.20;;;;;;5021536;28;20049;-72
2022/07/08 00:20:08;;;;;;;5.65;1.27;;;18.80;93.50;;;;;;5026847;28;20021;-72
2022/07/08 00:22:34;;;;;;;3.42;1.20;;;18.80;93.60;;;;;;5025446;28;20083;-72
2022/07/08 00:25:00;;;;;;;1.65;1.20;;;18.80;93.90;;;;;;5024015;28;20037;-76
2022/07/08 00:27:26;;;;;;;2.00;1.10;;;18.70;94.10;;;;;;5019488;28;20029;-75
2022/07/08 00:29:51;;;;;;;1.52;1.27;;;18.70;93.90;;;;;;5019562;28;20502;-76
2022/07/08 00:32:18;;;;;;;1.88;1.40;;;18.60;94.00;;;;;;5020771;28;20100;-75
2022/07/08 00:34:44;;;;;;;1.63;0.90;;;18.50;94.30;;;;;;5018811;28;20034;-75
2022/07/08 00:37:09;;;;;;;1.38;1.02;;;18.40;94.40;;;;;;5025593;28;20040;-76
2022/07/08 00:39:35;;;;;;;2.20;1.20;;;18.30;94.60;;;;;;5016247;28;20934;-75
2022/07/08 00:42:01;;;;;;;1.27;1.17;;;18.40;94.60;;;;;;5024168;28;20033;-75
2022/07/08 00:44:27;;;;;;;2.25;1.10;;;18.50;94.30;;;;;;5022367;28;20095;-73
2022/07/08 00:46:52;;;;;;;1.48;1.20;;;18.60;94.10;;;;;;5024568;28;20128;-74
2022/07/08 00:49:18;;;;;;;1.35;1.20;;;18.70;94.00;;;;;;5022198;28;20132;-72
2022/07/08 00:51:46;;;;;;;1.60;1.23;;;18.80;93.70;;;;;;5024023;28;20112;-72
2022/07/08 00:54:18;;;;;;;2.20;1.40;;;18.90;93.50;;;;;;5021806;28;20029;-72
2022/07/08 00:56:43;;;;;;;1.20;1.15;;;18.90;93.90;;;;;;5026561;28;20089;-72
2022/07/08 00:59:10;;;;;;;1.52;1.20;;;18.70;93.90;;;;;;5014546;28;20591;-73
2022/07/08 01:01:36;;;;;;;2.75;1.30;;;18.70;94.20;;;;;;5010847;28;20574;-73
2022/07/08 01:04:03;;;;;;;1.40;1.30;;;18.60;94.50;;;;;;5019648;28;20031;-77
2022/07/08 01:06:28;;;;;;;1.60;1.20;;;18.60;94.70;;;;;;5025427;28;20501;-76
2022/07/08 01:08:54;;;;;;;1.05;0.98;;;18.60;94.70;;;;;;5014131;28;20064;-77
2022/07/08 01:11:20;;;;;;;1.38;1.25;;;18.70;94.50;;;;;;5019233;28;20053;-76
2022/07/08 01:13:47;;;;;;;1.40;1.20;;;18.70;94.30;;;;;;5025847;28;20124;-76
2022/07/08 01:16:13;;;;;;;2.35;1.30;;;18.70;94.40;;;;;;5017500;28;20053;-75
2022/07/08 01:18:40;;;;;;;1.30;1.00;;;18.50;94.60;;;;;;5019657;28;20042;-80
2022/07/08 01:21:06;;;;;;;1.17;1.17;;;18.30;94.90;;;;;;5023485;28;20033;-79
2022/07/08 01:23:32;;;;;;;3.63;1.00;;;18.30;95.10;;;;;;5025131;28;20454;-72
2022/07/08 01:25:59;;;;;;;1.67;1.20;;;18.20;95.30;;;;;;5018349;28;20021;-71
2022/07/08 01:28:25;;;;;;;1.40;1.30;;;18.10;95.40;;;;;;5027158;28;20028;-72
2022/07/08 01:30:51;;;;;;;2.17;1.40;;;18.00;95.70;;;;;;5023598;28;20060;-72
2022/07/08 01:33:17;;;;;;;3.47;1.30;;;17.90;96.00;;;;;;5024350;28;20107;-71
2022/07/08 01:35:43;;;;;;;2.22;1.08;;;17.80;96.40;;;;;;5020891;28;20108;-71
2022/07/08 01:38:09;;;;;;;1.17;1.10;;;17.80;96.70;;;;;;5023780;28;20054;-71
2022/07/08 01:40:35;;;;;;;1.60;1.40;;;17.70;96.60;;;;;;5026345;28;21131;-80
2022/07/08 01:43:00;;;;;;;2.00;1.40;;;17.60;96.90;;;;;;5023112;28;20037;-79
2022/07/08 01:45:26;;;;;;;2.25;1.25;;;17.50;97.30;;;;;;5020859;28;20203;-79
2022/07/08 01:47:51;;;;;;;1.98;1.40;;;17.50;97.40;;;;;;5024044;28;20026;-78
2022/07/08 01:50:17;;;;;;;2.53;1.48;;;17.50;97.40;;;;;;5026200;28;20018;-79
2022/07/08 01:52:43;;;;;;;2.30;1.23;;;17.50;97.50;;;;;;5024964;28;20025;-78
2022/07/08 01:55:08;;;;;;;5.13;1.15;;;17.50;97.50;;;;;;5020383;28;20111;-79
2022/07/08 01:57:34;;;;;;;2.13;1.27;;;17.60;97.40;;;;;;5020000;28;20169;-78
2022/07/08 02:00:00;;;;;;;1.30;1.08;;;17.60;97.20;;;;;;5026077;28;20374;-71
2022/07/08 02:02:26;;;;;;;4.07;1.27;;;17.60;97.30;;;;;;5030471;28;20072;-72
2022/07/08 02:04:52;;;;;;;2.42;1.08;;;17.60;97.30;;;;;;5025203;28;20029;-71
2022/07/08 02:07:18;;;;;;;1.20;1.10;;;17.60;97.50;;;;;;5027617;28;20067;-69
2022/07/08 02:09:43;;;;;;;1.40;1.13;;;17.60;97.50;;;;;;5030081;28;20047;-69
2022/07/08 02:12:19;;;;;;;2.72;1.30;;;17.60;97.40;;;;;;5030947;28;20032;-71
2022/07/08 02:15:01;;;;;;;4.57;1.27;;;17.60;98.00;;;;;;5028784;28;20733;-74
2022/07/08 02:17:28;;;;;;;2.67;1.38;;;17.50;98.00;;;;;;5023800;28;20126;-77
2022/07/08 02:19:54;;;;;;;2.17;1.35;;;17.50;97.90;;;;;;5028813;28;20030;-71
2022/07/08 02:22:20;;;;;;;1.25;1.15;;;17.50;97.90;;;;;;5033129;28;20040;-72
2022/07/08 02:24:47;;;;;;;2.15;1.27;;;17.50;98.10;;;;;;5023838;28;20041;-71
2022/07/08 02:27:13;;;;;;;1.10;1.00;;;17.40;98.10;;;;;;5023775;28;20069;-71
2022/07/08 02:29:39;;;;;;;2.50;1.30;;;17.40;98.20;;;;;;5022007;28;20112;-71
2022/07/08 02:32:05;;;;;;;2.92;1.40;;;17.30;98.20;;;;;;5026215;28;20552;-71
2022/07/08 02:34:31;;;;;;;1.63;1.50;;;17.10;98.60;;;;;;5026919;28;20385;-71
2022/07/08 02:36:57;;;;;;;1.20;1.17;;;17.10;98.90;;;;;;5027269;28;20037;-78
2022/07/08 02:39:23;;;;;;;4.20;1.95;;;17.00;99.10;;;;;;5029156;28;20381;-71
2022/07/08 02:41:49;;;;;;;3.28;1.50;;;16.70;99.20;;;;;;5024668;28;20028;-71
2022/07/08 02:44:16;;;;;;;6.28;1.55;;;16.70;99.50;;;;;;5027446;28;20568;-71
2022/07/08 02:46:41;;;;;;;2.03;1.20;;;16.70;99.60;;;;;;5026928;28;20030;-71
2022/07/08 02:49:08;;;;;;;3.67;1.63;;;16.60;99.90;;;;;;5029022;28;20024;-71
2022/07/08 02:51:35;;;;;;;9.00;1.70;;;16.60;99.90;;;;;;5026931;28;20488;-71
2022/07/08 02:54:01;;;;;;;9.43;1.52;;;16.40;99.90;;;;;;5032625;28;20080;-71
2022/07/08 02:56:27;;;;;;;3.38;1.55;;;16.30;99.90;;;;;;5022710;28;20037;-71
2022/07/08 02:58:53;;;;;;;1.30;1.20;;;16.30;99.90;;;;;;5029271;28;20142;-78
2022/07/08 03:01:18;;;;;;;9.50;1.33;;;16.30;99.90;;;;;;5023749;28;20157;-78
2022/07/08 03:03:44;;;;;;;1.00;1.00;;;16.30;99.90;;;;;;5016614;28;22185;-78
2022/07/08 03:06:10;;;;;;;2.03;1.50;;;16.40;99.90;;;;;;5019040;28;20102;-78
2022/07/08 03:08:35;;;;;;;2.08;1.20;;;16.50;99.90;;;;;;5023885;28;20484;-78
2022/07/08 03:11:01;;;;;;;2.08;1.30;;;16.50;99.90;;;;;;5025429;28;20095;-79
2022/07/08 03:13:26;;;;;;;1.67;1.30;;;16.50;99.90;;;;;;5028238;28;20079;-79
2022/07/08 03:15:52;;;;;;;1.67;1.38;;;16.40;99.90;;;;;;5026368;28;20033;-71
2022/07/08 03:18:18;;;;;;;2.17;1.30;;;16.30;99.90;;;;;;5031489;28;20061;-71
2022/07/08 03:20:43;;;;;;;1.90;1.40;;;16.20;99.90;;;;;;5023389;28;20035;-71
2022/07/08 03:23:09;;;;;;;1.08;1.08;;;16.00;99.90;;;;;;5023896;28;20053;-71
2022/07/08 03:25:34;;;;;;;1.30;1.20;;;15.90;99.90;;;;;;5022913;28;20424;-71
2022/07/08 03:28:01;;;;;;;2.80;1.50;;;15.90;99.90;;;;;;5029218;28;20391;-71
2022/07/08 03:30:27;;;;;;;1.50;1.20;;;16.00;99.90;;;;;;5027160;28;20060;-71
2022/07/08 03:32:53;;;;;;;2.35;1.15;;;16.00;99.90;;;;;;5023586;28;20068;-71
2022/07/08 03:35:19;;;;;;;1.92;1.05;;;16.00;99.90;;;;;;5029613;28;20025;-79
2022/07/08 03:37:47;;;;;;;1.67;1.40;;;16.10;99.90;;;;;;5023037;28;20071;-79
2022/07/08 03:42:57;;;;;;;5.55;1.73;;;16.10;99.90;;;;;;5026479;28;20401;-78
2022/07/08 03:45:23;;;;;;;1.55;1.40;;;16.20;99.90;;;;;;5028427;28;20017;-78
2022/07/08 03:47:51;;;;;;;1.60;1.13;;;16.40;99.90;;;;;;5024417;28;20375;-79
2022/07/08 03:50:17;;;;;;;2.20;1.20;;;16.50;99.90;;;;;;5024139;28;20271;-79
2022/07/08 03:52:45;;;;;;;1.20;1.10;;;16.60;99.90;;;;;;5026180;28;20042;-79
2022/07/08 03:55:10;;;;;;;12.73;1.52;;;16.70;99.90;;;;;;5025083;28;20090;-71
2022/07/08 03:57:36;;;;;;;4.80;1.63;;;16.80;99.90;;;;;;5020728;28;20041;-71
2022/07/08 04:00:04;;;;;;;16.02;2.10;;;16.80;99.90;;;;;;5026334;28;20022;-71
2022/07/08 04:02:30;;;;;;;1.73;1.15;;;16.90;99.90;;;;;;5020566;28;20079;-71
2022/07/08 04:04:55;;;;;;;14.88;2.38;;;16.90;99.90;;;;;;5028335;28;20448;-71
2022/07/08 04:07:21;;;;;;;2.88;1.35;;;17.00;99.90;;;;;;5024204;28;20051;-71
2022/07/08 04:09:46;;;;;;;3.20;1.40;;;16.90;99.90;;;;;;5024659;28;20033;-71
2022/07/08 04:12:12;;;;;;;1.80;1.70;;;16.90;99.90;;;;;;5023949;28;20044;-71
2022/07/08 04:14:38;;;;;;;2.83;1.10;;;16.80;99.90;;;;;;5024493;28;20104;-80
2022/07/08 04:17:04;;;;;;;1.30;1.20;;;16.80;99.90;;;;;;5022481;28;20080;-80
2022/07/08 04:19:29;;;;;;;2.17;1.70;;;16.80;99.90;;;;;;5023593;28;20033;-80
2022/07/08 04:21:55;;;;;;;1.80;1.40;;;16.70;99.90;;;;;;5028345;28;20076;-79
2022/07/08 04:24:21;;;;;;;4.30;1.45;;;16.70;99.90;;;;;;5023739;28;20424;-80
2022/07/08 04:26:46;;;;;;;1.27;1.10;;;16.70;99.90;;;;;;5027075;28;20038;-79
2022/07/08 04:29:12;;;;;;;2.13;1.40;;;16.80;99.90;;;;;;5024351;28;20013;-80
2022/07/08 04:31:38;;;;;;;8.27;1.45;;;17.00;99.90;;;;;;5026887;28;20036;-79
2022/07/08 04:34:03;;;;;;;2.45;1.50;;;17.10;99.90;;;;;;5028548;28;20042;-71
2022/07/08 04:36:29;;;;;;;1.23;1.13;;;17.10;99.90;;;;;;5028223;28;20036;-71
2022/07/08 04:38:54;;;;;;;2.70;1.20;;;17.20;99.90;;;;;;5024650;28;21111;-71
2022/07/08 04:41:20;;;;;;;3.05;1.42;;;17.30;99.90;;;;;;5028104;28;20048;-71
2022/07/08 04:43:46;;;;;;;3.45;1.20;;;17.30;99.90;;;;;;5025004;28;20033;-71
2022/07/08 04:46:12;;;;;;;1.60;1.10;;;17.40;99.90;;;;;;5026357;28;20052;-71
2022/07/08 04:48:39;;;;;;;2.80;1.50;;;17.50;99.90;;;;;;5023193;28;20041;-71
2022/07/08 04:51:05;;;;;;;1.20;1.05;;;17.60;99.90;;;;;;5027834;28;20025;-71
2022/07/08 04:53:31;;;;;;;1.02;1.02;;;17.70;99.90;;;;;;5028452;28;20033;-71
2022/07/08 04:55:57;;;;;;;3.55;1.65;;;17.70;99.90;;;;;;5026423;28;20048;-71
2022/07/08 04:58:22;;;;;;;1.27;1.17;;;17.70;99.90;;;;;;5026002;28;20040;-70
2022/07/08 05:00:48;;;;;;;3.10;1.25;;;17.80;99.90;;;;;;5021449;28;20115;-71
2022/07/08 05:03:14;;;;;;;1.23;1.13;;;17.80;99.90;;;;;;5025819;28;20025;-70
2022/07/08 05:05:40;;;;;;;1.80;1.20;;;17.80;99.90;;;;;;5027140;28;20104;-70
2022/07/08 05:08:05;;;;;;;1.50;1.10;;;17.70;99.90;;;;;;5020251;28;22168;-72
2022/07/08 05:10:31;;;;;;;1.30;1.20;;;17.70;99.90;;;;;;5029840;28;20021;-71
2022/07/08 05:12:57;;;;;;;1.88;1.15;;;17.80;99.90;;;;;;5017384;28;20417;-71
2022/07/08 05:15:23;;;;;;;6.28;1.27;;;17.90;99.90;;;;;;5023240;28;20147;-71
2022/07/08 05:17:51;;;;;;;4.40;1.20;;;18.00;99.90;;;;;;5019317;28;20053;-71
2022/07/08 05:20:17;;;;;;;4.88;1.23;;;17.90;99.90;;;;;;5024527;28;20139;-72
2022/07/08 05:22:42;;;;;;;1.15;1.00;;;17.90;99.90;;;;;;5026085;28;20118;-71
2022/07/08 05:25:08;;;;;;;1.50;1.10;;;17.90;99.90;;;;;;5022793;28;20106;-71
2022/07/08 05:27:34;;;;;;;1.10;1.00;;;17.90;99.90;;;;;;5024440;28;20059;-72
2022/07/08 05:30:00;;;;;;;1.13;1.00;;;17.90;99.80;;;;;;5021924;28;24239;-79
2022/07/08 05:32:26;;;;;;;2.05;1.20;;;17.90;99.80;;;;;;5028590;28;20845;-81
2022/07/08 05:34:52;;;;;;;3.58;1.30;;;18.00;99.90;;;;;;5026923;28;20021;-77
2022/07/08 05:37:17;;;;;;;1.80;1.20;;;18.10;99.90;;;;;;5026815;28;20086;-76
2022/07/08 05:39:43;;;;;;;1.73;1.20;;;18.20;99.70;;;;;;5024778;28;20493;-76
2022/07/08 05:42:10;;;;;;;1.10;1.10;;;18.30;99.80;;;;;;5026305;28;20034;-77
2022/07/08 05:44:37;;;;;;;2.65;1.00;;;18.40;99.80;;;;;;5029918;28;20025;-77
2022/07/08 05:47:04;;;;;;;5.18;1.27;;;18.50;99.80;;;;;;5030534;28;20043;-72
2022/07/08 05:49:30;;;;;;;1.42;1.33;;;18.60;99.50;;;;;;5027436;28;20028;-78
2022/07/08 05:51:55;;;;;;;2.20;0.95;;;18.70;99.50;;;;;;5028983;28;20029;-78
2022/07/08 05:54:21;;;;;;;0.85;0.80;;;18.80;99.20;;;;;;5031296;28;22057;-79
2022/07/08 05:56:47;;;;;;;1.52;1.17;;;18.90;99.20;;;;;;5027443;28;20032;-82
2022/07/08 05:59:12;;;;;;;5.63;1.20;;;19.00;99.10;;;;;;5027522;28;20041;-79
2022/07/08 06:05:00;;;;;;;1.15;0.90;;;19.30;98.40;;;;;;5021947;28;20063;-79
2022/07/08 06:07:25;;;;;;;3.50;1.17;;;19.40;97.70;;;;;;5029130;28;20470;-79
2022/07/08 06:09:51;;;;;;;2.58;1.25;;;19.50;97.60;;;;;;5023495;28;20037;-81
2022/07/08 06:12:16;;;;;;;2.72;1.48;;;19.50;97.80;;;;;;5027793;28;20033;-79
2022/07/08 06:14:42;;;;;;;21.92;2.70;;;19.50;97.70;;;;;;5028826;28;20108;-81
2022/07/08 06:17:08;;;;;;;2.60;1.45;;;19.50;97.80;;;;;;5030703;28;20080;-79
2022/07/08 06:19:33;;;;;;;13.20;1.40;;;19.60;98.20;;;;;;5033769;28;20052;-81
2022/07/08 06:21:59;;;;;;;3.88;1.15;;;19.70;98.70;;;;;;5024471;28;20042;-82
2022/07/08 06:24:25;;;;;;;4.07;1.23;;;19.70;97.70;;;;;;5029610;28;20080;-71
2022/07/08 06:26:51;;;;;;;1.23;1.08;;;19.90;98.50;;;;;;5028532;28;20036;-72
2022/07/08 06:32:39;;;;;;;1.50;1.40;;;19.90;98.10;;;;;;5028649;28;20055;-73
2022/07/08 06:35:05;;;;;;;1.83;0.82;;;20.00;98.90;;;;;;5028465;28;20029;-73
2022/07/08 06:37:31;;;;;;;2.20;1.10;;;20.00;98.40;;;;;;5029310;28;20044;-71
2022/07/08 06:39:56;;;;;;;7.05;1.40;;;20.10;98.30;;;;;;5027354;28;20033;-72
2022/07/08 06:42:22;;;;;;;11.70;1.75;;;20.10;98.40;;;;;;5023134;28;20021;-72
2022/07/08 06:44:47;;;;;;;5.57;1.80;;;20.20;97.80;;;;;;5024611;28;20414;-72
2022/07/08 06:47:13;;;;;;;3.97;1.48;;;20.30;97.80;;;;;;5026523;28;20159;-74
2022/07/08 06:49:39;;;;;;;3.15;1.10;;;20.40;97.90;;;;;;5030684;28;20029;-73
2022/07/08 06:52:05;;;;;;;1.13;1.05;;;20.50;97.90;;;;;;5032155;28;20120;-74
2022/07/08 06:54:36;;;;;;;3.15;1.00;;;20.60;97.50;;;;;;5030185;28;20162;-73
2022/07/08 06:57:07;;;;;;;1.80;1.25;;;20.70;97.30;;;;;;5025344;28;20030;-74
2022/07/08 06:59:34;;;;;;;1.55;1.27;;;20.90;96.50;;;;;;5029848;28;20143;-76
2022/07/08 07:01:59;;;;;;;1.40;1.30;;;21.10;96.70;;;;;;5021125;28;20051;-75
2022/07/08 07:04:26;;;;;;;4.32;1.10;;;21.30;96.60;;;;;;5022325;28;20140;-71
2022/07/08 07:06:52;;;;;;;5.78;1.38;;;21.50;95.70;;;;;;5021884;28;21003;-75
2022/07/08 07:09:18;;;;;;;1.30;1.10;;;21.60;95.50;;;;;;5025980;28;20039;-75
2022/07/08 07:11:43;;;;;;;1.58;1.10;;;21.70;95.10;;;;;;5022099;28;20505;-76
2022/07/08 07:14:09;;;;;;;3.15;1.10;;;21.70;94.10;;;;;;5028447;28;20113;-75
2022/07/08 07:16:35;;;;;;;1.92;1.27;;;21.60;93.70;;;;;;5028768;28;20110;-75
2022/07/08 07:19:00;;;;;;;2.08;0.93;;;21.60;93.40;;;;;;5019518;28;20057;-75
2022/07/08 07:21:26;;;;;;;5.07;1.13;;;21.60;92.60;;;;;;5019988;28;20029;-74
2022/07/08 07:23:51;;;;;;;4.00;1.30;;;21.70;92.70;;;;;;5025644;28;20029;-70
2022/07/08 07:26:17;;;;;;;1.83;1.35;;;21.70;93.00;;;;;;5021662;28;20517;-71
2022/07/08 07:28:44;;;;;;;1.73;1.20;;;21.80;92.70;;;;;;5026302;28;20835;-70
2022/07/08 07:31:10;;;;;;;1.20;1.10;;;21.80;92.40;;;;;;5026684;28;20059;-71
2022/07/08 07:33:36;;;;;;;3.13;1.20;;;21.80;92.30;;;;;;5024712;28;20058;-68
2022/07/08 07:36:02;;;;;;;1.52;1.30;;;21.80;92.70;;;;;;5016230;28;20116;-71
2022/07/08 07:38:28;;;;;;;1.55;1.00;;;21.80;92.80;;;;;;5019971;28;20661;-70
2022/07/08 07:40:53;;;;;;;1.48;1.00;;;21.80;92.40;;;;;;5023028;28;20033;-76
2022/07/08 07:43:19;;;;;;;1.40;1.27;;;21.90;92.00;;;;;;5015947;28;20029;-70
2022/07/08 07:45:45;;;;;;;1.30;1.20;;;22.00;92.00;;;;;;5023529;28;20025;-70
2022/07/08 07:48:10;;;;;;;2.60;1.30;;;22.00;91.70;;;;;;5024159;28;20052;-70
2022/07/08 07:50:36;;;;;;;1.08;0.82;;;22.10;92.00;;;;;;5023637;28;20024;-70
2022/07/08 07:53:01;;;;;;;3.63;1.13;;;22.20;92.00;;;;;;5028082;28;20047;-74
2022/07/08 07:55:27;;;;;;;3.42;1.38;;;22.30;91.10;;;;;;5023992;28;20025;-68
2022/07/08 07:57:53;;;;;;;1.40;1.30;;;22.40;92.00;;;;;;5018595;28;20038;-69
2022/07/08 08:00:19;;;;;;;15.88;1.52;;;22.50;91.10;;;;;;5028224;28;20029;-71
2022/07/08 08:02:44;;;;;;;0.90;0.90;;;22.60;91.90;;;;;;5021968;28;20032;-73
2022/07/08 08:05:11;;;;;;;2.58;1.60;;;22.60;90.70;;;;;;5028581;28;20025;-70
2022/07/08 08:07:38;;;;;;;1.50;1.10;;;22.60;90.80;;;;;;5010047;28;20029;-72
2022/07/08 08:10:05;;;;;;;1.65;1.20;;;22.50;90.40;;;;;;5020757;28;20037;-72
2022/07/08 08:12:31;;;;;;;4.50;1.30;;;22.50;89.70;;;;;;5013224;28;20033;-71
2022/07/08 08:14:57;;;;;;;3.92;1.35;;;22.40;90.30;;;;;;5023593;28;20033;-71
2022/07/08 08:17:22;;;;;;;2.63;1.38;;;22.40;90.50;;;;;;5020007;28;20056;-71
2022/07/08 08:19:48;;;;;;;2.08;1.10;;;22.40;90.30;;;;;;5015293;28;20056;-72
2022/07/08 08:22:14;;;;;;;5.10;1.58;;;22.40;90.50;;;;;;5023128;28;20469;-75
2022/07/08 08:24:42;;;;;;;1.63;1.00;;;22.50;90.40;;;;;;5024583;28;20486;-79
2022/07/08 08:27:08;;;;;;;4.85;0.90;;;22.50;89.70;;;;;;5021127;28;20025;-74
2022/07/08 08:29:34;;;;;;;2.60;1.50;;;22.50;89.30;;;;;;5028255;28;20067;-76
2022/07/08 08:31:59;;;;;;;3.13;1.27;;;22.50;89.00;;;;;;5020393;28;20119;-75
2022/07/08 08:34:25;;;;;;;2.22;1.25;;;22.50;90.00;;;;;;5022096;28;20034;-75
2022/07/08 08:36:51;;;;;;;3.53;1.15;;;22.50;90.40;;;;;;5016828;28;20055;-73
2022/07/08 08:39:16;;;;;;;1.02;1.00;;;22.50;89.30;;;;;;5021545;28;20103;-74
2022/07/08 08:41:43;;;;;;;1.50;1.27;;;22.60;89.80;;;;;;5007991;28;20074;-72
2022/07/08 08:44:09;;;;;;;1.73;1.00;;;22.60;90.00;;;;;;5010181;28;20037;-71
2022/07/08 08:46:36;;;;;;;1.90;1.25;;;22.60;89.50;;;;;;5020092;28;20470;-71
2022/07/08 08:49:02;;;;;;;3.30;1.00;;;22.60;90.10;;;;;;5011846;28;20041;-72
2022/07/08 08:51:32;;;;;;;2.15;1.27;;;22.60;90.00;;;;;;5014760;28;20083;-71
2022/07/08 08:54:01;;;;;;;1.30;1.10;;;22.50;88.50;;;;;;5013599;28;20371;-72
2022/07/08 08:56:27;;;;;;;1.58;1.17;;;22.50;89.60;;;;;;5019026;28;20060;-71
2022/07/08 08:58:53;;;;;;;2.53;1.10;;;22.50;89.20;;;;;;5021532;28;20104;-72
2022/07/08 09:01:20;;;;;;;1.45;1.10;;;22.50;90.00;;;;;;5012523;28;20117;-75
2022/07/08 09:03:46;;;;;;;1.52;1.23;;;22.50;90.10;;;;;;5024883;28;20134;-74
2022/07/08 09:06:12;;;;;;;12.90;1.30;;;22.60;90.00;;;;;;5021027;28;20032;-76
2022/07/08 09:08:39;;;;;;;1.27;1.17;;;22.60;90.20;;;;;;5030405;28;20048;-76
2022/07/08 09:11:06;;;;;;;1.40;1.30;;;22.70;90.20;;;;;;5027590;28;20029;-75
2022/07/08 09:13:32;;;;;;;1.20;1.10;;;22.80;88.60;;;;;;5030929;28;20596;-75
2022/07/08 10:26:37;;;;;;;2.50;1.02;;;24.20;80.60;;;;;;5068807;28;20105;-72
2022/07/08 10:29:10;;;;;;;1.17;1.00;;;24.30;79.60;;;;;;5090213;28;20044;-74
2022/07/08 10:31:51;;;;;;;2.60;1.05;;;24.50;80.10;;;;;;5086742;28;20115;-73
2022/07/08 10:34:19;;;;;;;1.20;1.10;;;24.60;79.20;;;;;;5096929;28;20703;-73
2022/07/08 10:36:47;;;;;;;4.00;1.20;;;24.60;80.00;;;;;;5095973;27;20027;-74
2022/07/08 10:39:13;;;;;;;3.13;1.17;;;24.70;78.50;;;;;;5087908;27;20036;-75
2022/07/08 10:41:40;;;;;;;2.42;1.10;;;24.80;81.60;;;;;;5086562;28;20057;-75
2022/07/08 10:44:08;;;;;;;3.25;1.17;;;24.90;79.90;;;;;;5096645;27;20039;-75
2022/07/08 10:46:33;;;;;;;2.70;1.27;;;25.00;79.10;;;;;;5095337;27;20032;-76
2022/07/08 10:49:01;;;;;;;4.13;1.30;;;24.90;76.30;;;;;;5095457;28;22961;-76
2022/07/08 10:51:29;;;;;;;1.65;1.20;;;24.90;77.00;;;;;;5094721;27;20611;-75
2022/07/08 10:54:02;;;;;;;2.63;1.10;;;24.90;76.30;;;;;;5095978;27;20825;-72
2022/07/08 10:56:48;;;;;;;1.67;1.10;;;25.00;77.90;;;;;;5100236;27;20040;-72
2022/07/08 10:59:19;;;;;;;2.72;1.10;;;25.10;78.50;;;;;;5096585;27;20035;-72
2022/07/08 11:02:03;;;;;;;1.48;0.85;;;25.20;76.40;;;;;;5093507;27;20047;-71
2022/07/08 11:04:35;;;;;;;3.58;1.23;;;25.20;73.40;;;;;;5092658;27;20055;-72
2022/07/08 11:07:20;;;;;;;2.28;1.20;;;25.20;76.10;;;;;;5095694;28;20519;-72
2022/07/08 11:10:06;;;;;;;1.45;0.90;;;25.10;73.60;;;;;;5088598;27;20683;-71
2022/07/08 11:12:41;;;;;;;1.08;0.95;;;25.10;76.60;;;;;;5096073;27;20019;-72
2022/07/08 11:15:10;;;;;;;2.60;1.00;;;25.10;76.00;;;;;;5095876;27;20036;-74
2022/07/08 11:17:37;;;;;;;1.77;1.00;;;25.10;77.00;;;;;;5093710;28;20059;-75
2022/07/08 11:20:23;;;;;;;1.48;0.93;;;25.20;76.00;;;;;;5072155;28;20036;-75
2022/07/08 11:22:49;;;;;;;2.17;1.00;;;25.30;75.00;;;;;;5095981;27;20067;-75
2022/07/08 11:25:16;;;;;;;6.43;1.20;;;25.30;75.90;;;;;;5071900;28;20113;-75
2022/07/08 11:27:42;;;;;;;1.98;1.13;;;25.20;75.00;;;;;;5092789;28;20056;-74
2022/07/08 11:30:14;;;;;;;2.65;1.08;;;25.20;75.90;;;;;;5095665;28;20027;-75
2022/07/08 11:32:41;;;;;;;1.20;0.70;;;25.20;76.50;;;;;;5099431;28;20533;-73
2022/07/08 11:35:07;;;;;;;0.93;0.93;;;25.10;75.90;;;;;;5093672;28;20276;-73
2022/07/08 11:37:40;;;;;;;1.60;1.13;;;25.10;76.60;;;;;;5097001;28;20123;-73
2022/07/08 11:40:06;;;;;;;1.15;1.05;;;25.10;75.70;;;;;;5074576;28;20108;-72
2022/07/08 11:42:36;;;;;;;1.02;0.93;;;25.10;75.10;;;;;;5093353;28;20044;-73
2022/07/08 11:45:08;;;;;;;1.40;1.10;;;25.10;74.50;;;;;;5092060;28;20595;-74
2022/07/08 11:47:34;;;;;;;0.80;0.80;;;25.10;75.40;;;;;;5098577;27;20116;-73
2022/07/08 11:50:00;;;;;;;1.85;1.00;;;25.10;76.50;;;;;;5087606;27;20553;-74
2022/07/08 11:52:27;;;;;;;3.80;1.23;;;25.10;76.30;;;;;;5094857;27;20586;-71
2022/07/08 11:54:54;;;;;;;5.65;1.42;;;25.10;76.50;;;;;;5087991;28;20043;-74
2022/07/08 11:57:19;;;;;;;3.88;1.10;;;25.10;76.40;;;;;;5076207;28;20504;-74
2022/07/08 11:59:47;;;;;;;2.13;1.23;;;25.10;75.20;;;;;;5089498;28;20043;-74
2022/07/08 12:02:18;;;;;;;3.17;1.38;;;25.10;73.40;;;;;;5093886;28;20036;-74
2022/07/08 12:04:45;;;;;;;4.15;1.20;;;25.20;75.90;;;;;;5082683;28;20101;-72
2022/07/08 12:07:30;;;;;;;2.60;0.98;;;25.30;74.10;;;;;;5088836;28;20507;-72
2022/07/08 12:09:59;;;;;;;4.10;0.93;;;25.40;72.60;;;;;;5090689;27;20036;-72
2022/07/08 12:12:29;;;;;;;2.28;0.90;;;25.40;71.30;;;;;;5081484;28;20979;-71
2022/07/08 12:14:56;;;;;;;1.15;1.05;;;25.50;71.60;;;;;;5086084;27;20063;-72
2022/07/08 12:17:28;;;;;;;1.30;0.98;;;25.50;72.30;;;;;;5088194;28;20039;-73
2022/07/08 12:19:55;;;;;;;1.30;1.20;;;25.50;72.60;;;;;;5073261;28;20158;-73
2022/07/08 12:22:48;;;;;;;1.75;1.25;;;25.40;71.40;;;;;;5086226;28;20030;-69
2022/07/08 12:25:18;;;;;;;5.30;0.90;;;25.20;72.60;;;;;;5072238;28;20471;-69
2022/07/08 12:27:54;;;;;;;4.07;0.98;;;25.10;73.30;;;;;;5075574;27;20463;-73
2022/07/08 12:30:28;;;;;;;1.13;1.10;;;25.10;72.30;;;;;;5076951;28;20039;-69
2022/07/08 12:32:59;;;;;;;2.47;1.10;;;24.90;73.10;;;;;;5082197;27;20039;-69
2022/07/08 12:35:30;;;;;;;2.38;1.70;;;24.90;72.00;;;;;;5086913;28;20040;-69
2022/07/08 12:38:11;;;;;;;3.15;1.40;;;24.80;73.70;;;;;;5090503;27;20604;-69
2022/07/08 12:40:38;;;;;;;1.95;1.20;;;24.80;74.40;;;;;;5096019;28;20039;-69
2022/07/08 12:43:05;;;;;;;1.20;1.10;;;24.80;74.50;;;;;;5086773;28;20301;-69
2022/07/08 12:45:31;;;;;;;1.20;1.10;;;24.80;73.50;;;;;;5089243;28;20035;-70
2022/07/08 12:47:58;;;;;;;4.93;1.77;;;24.80;75.10;;;;;;5088366;27;20446;-75
2022/07/08 12:50:24;;;;;;;1.30;1.10;;;24.90;73.80;;;;;;5079011;28;20047;-69
2022/07/08 12:52:50;;;;;;;0.98;0.98;;;24.80;73.20;;;;;;5074602;28;20142;-70
2022/07/08 12:55:16;;;;;;;2.33;1.00;;;24.70;75.00;;;;;;5086594;28;20494;-69
2022/07/08 12:57:42;;;;;;;2.47;1.20;;;24.70;74.60;;;;;;5084241;28;20709;-69
2022/07/08 13:00:09;;;;;;;1.33;1.23;;;24.80;75.30;;;;;;5084897;27;20032;-69
2022/07/08 13:02:34;;;;;;;3.05;1.20;;;24.70;75.00;;;;;;5092821;27;20124;-69
2022/07/08 13:05:00;;;;;;;1.02;1.00;;;24.60;75.40;;;;;;5080811;28;20079;-69
2022/07/08 13:07:26;;;;;;;1.55;1.08;;;24.70;76.60;;;;;;5084552;28;20063;-76
2022/07/08 13:09:52;;;;;;;1.20;1.10;;;24.70;77.00;;;;;;5080312;28;20035;-76
2022/07/08 13:12:17;;;;;;;2.95;1.23;;;24.70;76.30;;;;;;5085267;28;20067;-76
2022/07/08 13:14:43;;;;;;;1.08;1.05;;;24.60;75.80;;;;;;5088791;28;20092;-75
2022/07/08 13:17:09;;;;;;;1.30;1.20;;;24.60;75.90;;;;;;5081755;28;20044;-75
2022/07/08 13:19:35;;;;;;;1.20;1.10;;;24.60;76.10;;;;;;5081092;28;20055;-75
2022/07/08 13:22:01;;;;;;;2.83;0.90;;;24.60;76.60;;;;;;5088650;28;20040;-76
2022/07/08 13:24:28;;;;;;;1.45;1.35;;;24.50;76.60;;;;;;5062315;28;20078;-76
2022/07/08 13:26:54;;;;;;;2.22;1.20;;;24.50;76.00;;;;;;5089444;28;20146;-76
2022/07/08 13:29:19;;;;;;;2.28;1.67;;;24.50;77.00;;;;;;5072695;28;20064;-75
2022/07/08 13:31:45;;;;;;;2.10;1.38;;;24.50;75.80;;;;;;5088506;28;20044;-73
2022/07/08 13:34:11;;;;;;;4.60;1.42;;;24.50;75.20;;;;;;5088825;28;20062;-73
2022/07/08 13:36:38;;;;;;;2.47;1.20;;;24.50;75.20;;;;;;5088764;28;20031;-74
2022/07/08 13:39:04;;;;;;;1.52;1.20;;;24.50;77.20;;;;;;5092819;28;20140;-75
2022/07/08 13:41:30;;;;;;;1.48;1.27;;;24.50;76.30;;;;;;5076486;28;20504;-74
2022/07/08 13:43:59;;;;;;;1.33;1.20;;;24.60;76.40;;;;;;5090723;28;20089;-73
2022/07/08 13:46:27;;;;;;;2.28;1.05;;;24.60;75.10;;;;;;5087551;28;20031;-69
2022/07/08 13:48:53;;;;;;;4.13;1.23;;;24.60;75.00;;;;;;5086869;28;20427;-69
2022/07/08 13:51:19;;;;;;;2.35;1.10;;;24.60;75.00;;;;;;5085466;28;20031;-69
2022/07/08 13:53:45;;;;;;;1.80;1.00;;;24.60;74.30;;;;;;5089502;28;20382;-69
2022/07/08 13:56:13;;;;;;;1.65;1.23;;;24.60;74.80;;;;;;5093782;28;20024;-69
2022/07/08 13:58:39;;;;;;;9.60;1.42;;;24.60;75.00;;;;;;5093926;27;20036;-70
2022/07/08 14:01:05;;;;;;;3.55;1.10;;;24.60;76.40;;;;;;5094594;27;20391;-70
2022/07/08 14:03:31;;;;;;;1.27;1.15;;;24.60;76.30;;;;;;5070070;28;20046;-71